Migrate, Kentucky
Current Conditions -  °F | °C
As of 12:54 PM on Thursday 30 Oct 2014 (Local Time) from KLEX Reporting Station
Overcast Overcast  
Wind Chill: 50°   Ceiling: 3100
Heat Index: 50°   Visibility: 10mi
Dew Point: 34°   Wind: 3mph
Humidity: 54%   Direction: 210°SSW
Pressure: 30.15"   Gusts: NA
Location:  38.0638°N, 84.5027°W
Report Text: KLEX 301654Z 21003KT 10SM OVC031 10/01 A3015 RMK AO2 SLP211 T01000011 $
Loading
Personal Weather Stations






























Interactive Weather Map
Tropical Storm Tracking
New forecast layout! Learn more

10-Day Weather Forecast

Advertisements
Track Severe Weather on mobile